P2NTZ AYGA-AYAY

Flight info

Callsign P2NTZ
Flight time 0h 9m
Altitude 10000
Route VFR
Aircraft K100/L-SBDGRY/S

Departure

Time 2026-04-24 01:45
Airport Goroka Airport (AYGA)

Arrival

Time 2026-04-24 01:54
Airport Aiyura Airport (AYAY)
Time Latitude Longitude Altitude Speed Heading
2026-04-24 01:44 -6.17915 145.58369 9571 ft 162 kts 114°
2026-04-24 01:45 -6.18421 145.59381 9571 ft 162 kts 113°
2026-04-24 01:45 -6.18935 145.60406 9571 ft 162 kts 113°
2026-04-24 01:45 -6.19443 145.61420 9571 ft 162 kts 113°
2026-04-24 01:45 -6.19947 145.62428 9571 ft 162 kts 114°
2026-04-24 01:46 -6.20448 145.63457 9570 ft 162 kts 112°
2026-04-24 01:46 -6.20949 145.64465 9571 ft 162 kts 112°
2026-04-24 01:46 -6.21455 145.65480 9572 ft 162 kts 113°
2026-04-24 01:46 -6.21964 145.66493 9572 ft 162 kts 113°
2026-04-24 01:47 -6.22473 145.67511 9572 ft 162 kts 112°
2026-04-24 01:47 -6.22978 145.68529 9572 ft 162 kts 112°
2026-04-24 01:47 -6.23491 145.69557 9572 ft 163 kts 113°
2026-04-24 01:47 -6.24000 145.70570 9572 ft 163 kts 112°
2026-04-24 01:48 -6.24508 145.71587 9572 ft 163 kts 112°
2026-04-24 01:48 -6.25011 145.72595 9572 ft 163 kts 112°
2026-04-24 01:48 -6.25523 145.73619 9572 ft 163 kts 112°
2026-04-24 01:48 -6.26037 145.74648 9494 ft 165 kts 112°
2026-04-24 01:49 -6.26548 145.75670 9371 ft 162 kts 112°
2026-04-24 01:49 -6.27049 145.76672 9182 ft 163 kts 112°
2026-04-24 01:49 -6.27562 145.77699 8998 ft 164 kts 112°
2026-04-24 01:49 -6.28129 145.78696 8876 ft 160 kts 121°
2026-04-24 01:50 -6.28774 145.79620 8570 ft 169 kts 125°
2026-04-24 01:50 -6.29675 145.80455 8175 ft 174 kts 132°
2026-04-24 01:50 -6.30378 145.81348 8029 ft 161 kts 121°
2026-04-24 01:50 -6.30989 145.82213 7994 ft 150 kts 121°
2026-04-24 01:51 -6.30993 145.82219 7996 ft 150 kts 121°
2026-04-24 01:51 -6.31532 145.82913 7792 ft 154 kts 121°
2026-04-24 01:51 -6.32131 145.83818 7497 ft 157 kts 110°
2026-04-24 01:51 -6.32340 145.84781 7216 ft 131 kts 83°
2026-04-24 01:52 -6.32190 145.85623 6917 ft 108 kts 78°
2026-04-24 01:52 -6.32095 145.86279 6728 ft 91 kts 76°
2026-04-24 01:52 -6.31991 145.86894 6428 ft 85 kts 76°
2026-04-24 01:52 -6.31991 145.87454 6240 ft 80 kts 91°
2026-04-24 01:53 -6.32053 145.87964 6073 ft 72 kts 94°
2026-04-24 01:53 -6.32161 145.88428 5944 ft 63 kts 96°
2026-04-24 01:53 -6.32327 145.88837 5834 ft 62 kts 112°
2026-04-24 01:53 -6.32576 145.89204 5753 ft 66 kts 108°
2026-04-24 01:54 -6.32853 145.89592 5569 ft 68 kts 124°
2026-04-24 01:54 -6.33184 145.89903 5386 ft 63 kts 122°
2026-04-24 01:54 -6.33491 145.90167 5337 ft 47 kts 140°
2026-04-24 01:54 -6.33694 145.90321 5354 ft 27 kts 141°
2026-04-24 01:55 -6.33859 145.90454 5372 ft 30 kts 143°
2026-04-24 01:55 -6.33990 145.90541 5394 ft 15 kts 176°
2026-04-24 01:55 -6.34032 145.90518 5398 ft 6 kts 327°
2026-04-24 01:55 -6.34028 145.90517 5397 ft 0 kts 326°